createdAt,value
2019-02-25T00:01:32.867Z,1.26
2019-02-25T00:04:03.593Z,1.52
2019-02-25T00:06:34.055Z,1.58
2019-02-25T00:09:05.583Z,1.80
2019-02-25T00:11:36.246Z,1.60
2019-02-25T00:14:07.028Z,1.72
2019-02-25T00:16:37.600Z,1.91
2019-02-25T00:19:08.229Z,2.27
2019-02-25T00:21:38.688Z,2.28
2019-02-25T00:24:09.280Z,2.40
2019-02-25T00:26:39.844Z,1.33
2019-02-25T00:29:10.389Z,1.54
2019-02-25T00:31:40.907Z,2.18
2019-02-25T00:34:11.443Z,2.15
2019-02-25T00:36:41.958Z,2.29
2019-02-25T00:39:12.601Z,2.01
2019-02-25T00:41:43.330Z,2.26
2019-02-25T00:44:13.865Z,2.03
2019-02-25T00:46:44.370Z,2.31
2019-02-25T00:49:14.922Z,2.46
2019-02-25T00:51:45.201Z,2.40
2019-02-25T00:54:15.773Z,2.44
2019-02-25T00:56:46.612Z,2.13
2019-02-25T00:59:17.028Z,2.19
2019-02-25T01:01:47.456Z,1.53
2019-02-25T01:04:17.989Z,2.00
2019-02-25T01:06:48.623Z,2.13
2019-02-25T01:09:19.018Z,2.27
2019-02-25T01:11:49.425Z,2.27
2019-02-25T01:14:19.775Z,2.29
2019-02-25T01:16:50.555Z,2.41
2019-02-25T01:19:21.420Z,2.33
2019-02-25T01:21:51.741Z,2.30
2019-02-25T01:24:22.270Z,2.19
2019-02-25T01:26:53.015Z,2.36
2019-02-25T01:29:23.442Z,2.13
2019-02-25T01:31:53.863Z,2.10
2019-02-25T01:34:24.297Z,2.19
2019-02-25T01:36:54.828Z,1.81
2019-02-25T01:39:25.482Z,1.89
2019-02-25T01:41:55.909Z,1.99
2019-02-25T01:44:26.306Z,2.20
2019-02-25T01:46:56.647Z,2.23
2019-02-25T01:49:27.158Z,2.12
2019-02-25T01:51:57.462Z,2.08
2019-02-25T01:54:28.116Z,1.88
2019-02-25T01:56:58.957Z,1.70
2019-02-25T01:59:29.676Z,1.40
2019-02-25T02:02:00.009Z,1.92
2019-02-25T02:04:30.746Z,1.71
2019-02-25T02:07:01.196Z,1.07
2019-02-25T02:09:31.499Z,1.33
2019-02-25T02:12:02.020Z,1.99
2019-02-25T02:14:32.541Z,1.96
2019-02-25T02:17:03.617Z,1.79
2019-02-25T02:19:34.141Z,1.63
2019-02-25T02:22:05.056Z,1.64
2019-02-25T02:24:35.466Z,2.23
2019-02-25T02:27:05.997Z,1.70
2019-02-25T02:29:36.582Z,2.13
2019-02-25T02:32:07.340Z,1.86
2019-02-25T02:34:37.846Z,1.51
2019-02-25T02:37:08.149Z,1.25
2019-02-25T02:39:38.554Z,1.55
2019-02-25T02:42:22.660Z,1.80
2019-02-25T02:45:31.243Z,0.57
2019-02-25T02:48:10.797Z,1.60
2019-02-25T02:50:41.285Z,1.14
2019-02-25T02:53:11.691Z,0.65
2019-02-25T02:55:42.484Z,1.27
2019-02-25T02:58:12.881Z,0.73
2019-02-25T03:00:43.294Z,0.67
2019-02-25T03:03:13.703Z,-0.21
2019-02-25T03:05:44.160Z,0.12
2019-02-25T03:08:14.691Z,0.99
2019-02-25T03:10:45.363Z,1.28
2019-02-25T03:13:15.657Z,1.16
2019-02-25T03:15:46.052Z,1.14
2019-02-25T03:18:16.840Z,1.26
2019-02-25T03:20:47.346Z,0.43
2019-02-25T03:23:17.742Z,0.95
2019-02-25T03:25:48.172Z,0.95
2019-02-25T03:28:18.743Z,0.89
2019-02-25T03:30:49.246Z,0.07
2019-02-25T03:33:19.805Z,-0.19
2019-02-25T03:35:50.482Z,0.08
2019-02-25T03:38:20.913Z,0.30
2019-02-25T03:40:51.346Z,0.58
2019-02-25T03:43:21.972Z,0.46
2019-02-25T03:45:52.710Z,0.57
2019-02-25T03:48:23.019Z,0.95
2019-02-25T03:50:53.497Z,0.32
2019-02-25T03:53:23.895Z,0.30
2019-02-25T03:58:52.531Z,0.99
2019-02-25T04:01:23.250Z,0.14
2019-02-25T04:03:59.651Z,0.52
2019-02-25T04:06:29.992Z,-0.18
2019-02-25T04:09:00.370Z,-0.05
2019-02-25T04:11:30.777Z,0.02
2019-02-25T04:14:01.169Z,-0.46
2019-02-25T04:16:31.745Z,-0.86
2019-02-25T04:19:02.387Z,-1.07
2019-02-25T04:21:38.490Z,-0.91
2019-02-25T04:24:08.858Z,-1.07
2019-02-25T04:26:39.161Z,-0.61
2019-02-25T04:29:09.591Z,-1.04
2019-02-25T04:31:40.311Z,-1.35
2019-02-25T04:34:10.685Z,-0.73
2019-02-25T04:36:41.413Z,-0.98
2019-02-25T04:39:11.842Z,-0.82
2019-02-25T04:41:42.460Z,-1.03
2019-02-25T04:44:12.880Z,-1.31
2019-02-25T04:47:03.413Z,-0.40
2019-02-25T04:49:33.892Z,-0.40
2019-02-25T04:52:04.212Z,-1.04
2019-02-25T04:54:34.746Z,-0.73
2019-02-25T04:57:04.938Z,-1.24
2019-02-25T04:59:34.817Z,-0.11
2019-02-25T05:02:04.801Z,0.09
2019-02-25T05:04:34.977Z,-0.06
2019-02-25T05:07:05.180Z,-0.60
2019-02-25T05:09:35.193Z,-0.66
2019-02-25T05:12:05.196Z,-0.37
2019-02-25T05:14:35.375Z,0.25
2019-02-25T05:17:05.587Z,-0.31
2019-02-25T05:19:35.478Z,-0.30
2019-02-25T05:22:05.465Z,-0.21
2019-02-25T05:24:35.648Z,-0.24
2019-02-25T05:27:05.731Z,-0.70
2019-02-25T05:29:35.935Z,-0.40
2019-02-25T05:32:06.156Z,-1.02
2019-02-25T05:34:36.050Z,-0.95
2019-02-25T05:37:06.142Z,-0.18
2019-02-25T05:39:36.498Z,-0.73
2019-02-25T05:42:07.155Z,-0.18
2019-02-25T05:44:37.333Z,0.29
2019-02-25T05:47:07.314Z,0.73
2019-02-25T05:49:37.995Z,0.57
2019-02-25T05:52:08.228Z,-0.01
2019-02-25T05:54:38.114Z,-0.27
2019-02-25T05:57:08.217Z,-0.38
2019-02-25T05:59:38.420Z,0.64
2019-02-25T06:02:08.617Z,-0.19
2019-02-25T06:04:38.702Z,0.18
2019-02-25T06:07:10.465Z,-0.06
2019-02-25T06:09:40.857Z,0.08
2019-02-25T06:12:10.853Z,-0.38
2019-02-25T06:14:41.054Z,-0.38
2019-02-25T06:17:11.371Z,-0.31
2019-02-25T06:19:41.262Z,-0.12
2019-02-25T06:22:11.351Z,0.28
2019-02-25T06:24:41.549Z,-0.32
2019-02-25T06:27:11.758Z,-0.04
2019-02-25T06:29:41.635Z,0.49
2019-02-25T06:32:11.612Z,0.37
2019-02-25T06:34:41.909Z,1.07
2019-02-25T06:37:12.120Z,1.08
2019-02-25T06:39:42.019Z,1.12
2019-02-25T06:42:11.905Z,0.19
2019-02-25T06:44:42.127Z,0.66
2019-02-25T06:47:12.310Z,1.38
2019-02-25T06:49:42.459Z,1.51
2019-02-25T06:52:12.352Z,0.89
2019-02-25T06:54:42.539Z,0.96
2019-02-25T06:57:12.719Z,1.01
2019-02-25T06:59:42.621Z,1.36
2019-02-25T07:02:12.597Z,0.84
2019-02-25T07:05:07.976Z,1.37
2019-02-25T07:07:55.706Z,2.16
2019-02-25T07:10:53.476Z,1.42
2019-02-25T07:13:44.993Z,1.44
2019-02-25T07:16:32.865Z,1.28
2019-02-25T07:19:18.991Z,1.99
2019-02-25T07:22:07.704Z,1.74
2019-02-25T07:25:02.782Z,1.00
2019-02-25T07:27:50.957Z,2.21
2019-02-25T07:30:54.831Z,1.47
2019-02-25T07:33:42.190Z,1.83
2019-02-25T07:36:43.445Z,2.62
2019-02-25T07:39:35.489Z,3.18
2019-02-25T07:42:36.486Z,2.99
2019-02-25T07:45:33.917Z,3.54
2019-02-25T07:48:29.135Z,3.29
2019-02-25T07:51:14.332Z,4.14
2019-02-25T07:54:06.955Z,3.89
2019-02-25T07:57:11.642Z,3.20
2019-02-25T07:59:59.443Z,3.76
2019-02-25T08:02:39.650Z,2.61
2019-02-25T08:05:37.843Z,3.38
2019-02-25T08:08:16.336Z,3.11
2019-02-25T08:11:08.358Z,3.62
2019-02-25T08:13:53.942Z,3.89
2019-02-25T08:16:43.265Z,3.90
2019-02-25T08:19:41.760Z,3.95
2019-02-25T08:22:45.925Z,4.28
2019-02-25T08:25:48.399Z,4.28
2019-02-25T08:28:52.559Z,4.45
2019-02-25T08:31:47.569Z,3.61
2019-02-25T08:34:39.210Z,3.63
2019-02-25T08:37:48.784Z,2.99
2019-02-25T08:40:38.771Z,3.88
2019-02-25T08:43:43.540Z,4.03
2019-02-25T08:46:22.297Z,4.22
2019-02-25T08:49:05.004Z,4.03
2019-02-25T08:51:35.307Z,3.80
2019-02-25T08:54:05.329Z,3.72
2019-02-25T08:56:35.488Z,3.72
2019-02-25T08:59:05.682Z,3.63
2019-02-25T09:01:35.775Z,2.89
2019-02-25T09:04:05.970Z,3.12
2019-02-25T09:06:36.169Z,2.77
2019-02-25T09:09:07.711Z,3.40
2019-02-25T09:11:37.819Z,3.62
2019-02-25T09:14:08.018Z,3.31
2019-02-25T09:16:38.223Z,2.95
2019-02-25T09:19:08.137Z,3.44
2019-02-25T09:21:38.022Z,3.55
2019-02-25T09:24:08.196Z,3.43
2019-02-25T09:26:38.385Z,3.63
2019-02-25T09:29:08.378Z,2.91
2019-02-25T09:31:38.281Z,3.07
2019-02-25T09:34:08.475Z,3.61
2019-02-25T09:36:38.663Z,3.97
2019-02-25T09:39:13.007Z,4.31
2019-02-25T09:41:43.221Z,4.45
2019-02-25T09:44:13.219Z,4.09
2019-02-25T09:46:43.229Z,4.43
2019-02-25T09:49:13.492Z,4.30
2019-02-25T09:51:43.997Z,4.32
2019-02-25T09:54:14.334Z,4.35
2019-02-25T09:56:44.509Z,4.39
2019-02-25T09:59:14.801Z,4.81
2019-02-25T10:01:45.018Z,5.31
2019-02-25T10:04:15.036Z,4.62
2019-02-25T10:06:45.013Z,4.91
2019-02-25T10:09:15.214Z,4.80
2019-02-25T10:11:45.481Z,4.16
2019-02-25T10:14:15.356Z,4.67
2019-02-25T10:16:45.352Z,5.00
2019-02-25T10:19:15.550Z,4.70
2019-02-25T10:21:45.638Z,4.26
2019-02-25T10:24:17.151Z,4.56
2019-02-25T10:26:47.419Z,5.02
2019-02-25T10:29:17.409Z,5.14
2019-02-25T10:31:47.404Z,5.48
2019-02-25T10:34:18.052Z,5.34
2019-02-25T10:36:50.169Z,5.40
2019-02-25T10:39:20.067Z,5.35
2019-02-25T10:41:51.171Z,5.82
2019-02-25T10:44:21.878Z,5.70
2019-02-25T10:46:52.450Z,5.59
2019-02-25T10:49:24.425Z,5.03
2019-02-25T10:51:55.527Z,5.25
2019-02-25T10:54:26.009Z,5.79
2019-02-25T10:57:02.952Z,4.94
2019-02-25T10:59:34.648Z,5.14
2019-02-25T11:02:05.088Z,5.12
2019-02-25T11:04:35.093Z,5.01
2019-02-25T11:07:07.281Z,4.88
2019-02-25T11:09:51.372Z,5.18
2019-02-25T11:12:23.549Z,5.37
2019-02-25T11:14:53.385Z,5.45
2019-02-25T11:17:24.432Z,5.27
2019-02-25T11:19:56.569Z,5.66
2019-02-25T11:22:26.976Z,6.18
2019-02-25T11:24:57.802Z,5.39
2019-02-25T11:27:28.588Z,5.59
2019-02-25T11:29:59.793Z,5.65
2019-02-25T11:32:30.056Z,5.95
2019-02-25T11:35:01.299Z,6.12
2019-02-25T11:37:31.925Z,6.32
2019-02-25T11:40:04.279Z,6.23
2019-02-25T11:42:34.411Z,6.68
2019-02-25T11:45:05.680Z,6.84
2019-02-25T11:47:36.058Z,7.10
2019-02-25T11:50:06.776Z,6.95
2019-02-25T11:52:36.990Z,6.78
2019-02-25T11:55:08.055Z,6.87
2019-02-25T11:57:38.277Z,6.93
2019-02-25T12:00:14.945Z,6.79
2019-02-25T12:02:45.558Z,6.92
2019-02-25T12:05:17.188Z,7.15
2019-02-25T12:07:48.033Z,6.93
2019-02-25T12:10:18.664Z,6.66
2019-02-25T12:12:48.688Z,6.11
2019-02-25T12:15:18.882Z,6.12
2019-02-25T12:17:49.282Z,6.05
2019-02-25T12:20:19.823Z,5.62
2019-02-25T12:22:50.167Z,5.03
2019-02-25T12:25:20.416Z,4.62
2019-02-25T12:27:50.962Z,4.96
2019-02-25T12:30:21.595Z,5.24
2019-02-25T12:32:52.129Z,5.48
2019-02-25T12:35:22.859Z,5.50
2019-02-25T12:37:53.590Z,6.15
2019-02-25T12:40:24.169Z,6.04
2019-02-25T12:42:54.272Z,6.23
2019-02-25T12:45:24.559Z,5.75
2019-02-25T12:47:55.088Z,5.50
2019-02-25T12:50:25.491Z,5.65
2019-02-25T12:52:56.318Z,5.88
2019-02-25T12:55:27.158Z,5.33
2019-02-25T12:57:57.697Z,5.11
2019-02-25T13:00:27.686Z,5.70
2019-02-25T13:02:58.035Z,6.03
2019-02-25T13:05:28.027Z,5.66
2019-02-25T13:07:57.936Z,5.38
2019-02-25T13:10:28.225Z,5.76
2019-02-25T13:12:58.427Z,5.23
2019-02-25T13:15:28.533Z,5.09
2019-02-25T13:18:00.130Z,5.21
2019-02-25T13:20:30.843Z,5.55
2019-02-25T13:23:01.039Z,5.72
2019-02-25T13:25:30.946Z,5.93
2019-02-25T13:28:02.084Z,5.86
2019-02-25T13:30:32.783Z,6.15
2019-02-25T13:33:03.053Z,6.03
2019-02-25T13:35:33.060Z,5.77
2019-02-25T13:38:02.972Z,5.77
2019-02-25T13:40:33.544Z,6.18
2019-02-25T13:43:03.618Z,5.75
2019-02-25T13:45:33.891Z,5.79
2019-02-25T13:48:04.105Z,5.66
2019-02-25T13:50:34.195Z,5.64
2019-02-25T13:53:04.629Z,6.07
2019-02-25T13:55:35.016Z,5.96
2019-02-25T13:58:05.389Z,6.35
2019-02-25T14:00:35.648Z,6.43
2019-02-25T14:03:05.862Z,6.46
2019-02-25T14:05:36.158Z,6.63
2019-02-25T14:08:06.363Z,6.64
2019-02-25T14:10:36.374Z,6.34
2019-02-25T14:13:06.690Z,6.55
2019-02-25T14:15:36.889Z,6.43
2019-02-25T14:18:07.164Z,6.40
2019-02-25T14:20:37.062Z,6.46
2019-02-25T14:23:07.269Z,6.67
2019-02-25T14:25:38.389Z,6.81
2019-02-25T14:28:09.048Z,6.97
2019-02-25T14:30:40.026Z,6.82
2019-02-25T14:33:12.672Z,6.59
2019-02-25T14:35:42.263Z,6.80
2019-02-25T14:38:15.892Z,7.10
2019-02-25T14:40:46.601Z,7.14
2019-02-25T14:43:17.676Z,6.94
2019-02-25T14:45:53.089Z,6.47
2019-02-25T14:48:21.048Z,6.20
2019-02-25T14:50:52.130Z,6.31
2019-02-25T14:53:22.588Z,6.48
2019-02-25T14:55:55.281Z,6.64
2019-02-25T14:58:24.636Z,6.82
2019-02-25T15:00:55.006Z,6.44
2019-02-25T15:03:27.006Z,6.07
2019-02-25T15:05:59.146Z,6.28
2019-02-25T15:08:30.627Z,6.56
2019-02-25T15:11:02.404Z,6.55
2019-02-25T15:13:35.048Z,6.46
2019-02-25T15:16:05.331Z,6.32
2019-02-25T15:18:35.818Z,6.46
2019-02-25T15:21:11.687Z,6.54
2019-02-25T15:23:42.773Z,6.45
2019-02-25T15:26:15.096Z,6.35
2019-02-25T15:28:44.894Z,6.33
2019-02-25T15:31:16.502Z,6.45
2019-02-25T15:33:47.200Z,6.42
2019-02-25T15:36:17.876Z,6.24
2019-02-25T15:38:49.313Z,6.12
2019-02-25T15:41:19.449Z,6.24
2019-02-25T15:43:49.730Z,6.34
2019-02-25T15:46:22.204Z,6.38
2019-02-25T15:48:51.691Z,5.06
2019-02-25T15:51:22.085Z,6.31
2019-02-25T15:53:54.103Z,6.24
2019-02-25T15:56:24.643Z,6.21
2019-02-25T15:58:54.524Z,6.27
2019-02-25T16:01:59.961Z,6.22
2019-02-25T16:04:31.860Z,6.35
2019-02-25T16:07:05.647Z,6.25
2019-02-25T16:09:34.024Z,6.19
2019-02-25T16:12:05.871Z,6.19
2019-02-25T16:14:38.865Z,6.19
2019-02-25T16:17:08.727Z,6.18
2019-02-25T16:19:46.442Z,6.11
2019-02-25T16:22:11.848Z,5.26
2019-02-25T16:24:43.606Z,5.33
2019-02-25T16:27:14.435Z,5.60
2019-02-25T16:29:44.725Z,5.79
2019-02-25T16:32:16.903Z,5.87
2019-02-25T16:34:46.734Z,5.79
2019-02-25T16:48:24.222Z,5.30
2019-02-25T16:50:52.469Z,5.15
2019-02-25T16:53:22.740Z,5.04
2019-02-25T16:55:53.132Z,5.00
2019-02-25T16:58:23.149Z,5.07
2019-02-25T17:00:56.022Z,5.01
2019-02-25T17:03:25.672Z,4.93
2019-02-25T17:05:55.764Z,4.92
2019-02-25T17:08:26.566Z,4.88
2019-02-25T17:10:59.818Z,5.07
2019-02-25T17:13:32.465Z,4.01
2019-02-25T17:16:02.704Z,4.21
2019-02-25T17:18:33.315Z,3.94
2019-02-25T17:21:05.174Z,3.61
2019-02-25T17:23:37.045Z,3.83
2019-02-25T17:26:07.719Z,4.10
2019-02-25T17:28:39.139Z,4.29
2019-02-25T17:31:11.127Z,4.34
2019-02-25T17:33:41.056Z,4.53
2019-02-25T17:36:12.417Z,4.45
2019-02-25T17:38:44.919Z,4.56
2019-02-25T17:41:15.075Z,4.43
2019-02-25T17:43:45.069Z,4.67
2019-02-25T17:46:15.275Z,4.90
2019-02-25T17:48:46.131Z,4.91
2019-02-25T17:51:18.347Z,5.14
2019-02-25T17:53:49.919Z,5.06
2019-02-25T17:56:20.710Z,5.05
2019-02-25T17:58:52.016Z,5.02
2019-02-25T18:01:24.179Z,4.94
2019-02-25T18:03:53.971Z,4.98
2019-02-25T18:06:29.467Z,5.06
2019-02-25T18:08:57.684Z,5.10
2019-02-25T18:11:28.102Z,4.91
2019-02-25T18:13:58.264Z,4.56
2019-02-25T18:16:28.464Z,4.37
2019-02-25T18:18:58.666Z,4.03
2019-02-25T18:21:29.036Z,4.09
2019-02-25T18:23:59.129Z,3.98
2019-02-25T18:26:31.102Z,3.88
2019-02-25T18:29:01.514Z,3.60
2019-02-25T18:31:32.094Z,3.58
2019-02-25T18:34:02.302Z,3.57
2019-02-25T18:36:33.215Z,3.53
2019-02-25T18:39:03.776Z,4.16
2019-02-25T18:41:34.370Z,4.02
2019-02-25T18:44:05.311Z,3.72
2019-02-25T18:46:36.560Z,3.50
2019-02-25T18:49:07.374Z,3.59
2019-02-25T18:51:39.473Z,3.59
2019-02-25T18:54:09.858Z,3.95
2019-02-25T18:56:42.058Z,3.52
2019-02-25T18:59:15.523Z,3.51
2019-02-25T19:01:45.359Z,3.66
2019-02-25T19:04:17.579Z,3.36
2019-02-25T19:06:47.919Z,3.47
2019-02-25T19:09:25.110Z,3.14
2019-02-25T19:11:56.163Z,3.21
2019-02-25T19:14:28.614Z,3.04
2019-02-25T19:16:59.788Z,2.93
2019-02-25T19:19:33.722Z,3.30
2019-02-25T19:22:02.116Z,3.27
2019-02-25T19:24:33.602Z,3.10
2019-02-25T19:27:06.578Z,3.44
2019-02-25T19:29:36.813Z,3.16
2019-02-25T19:32:07.004Z,3.10
2019-02-25T19:34:39.233Z,3.34
2019-02-25T19:37:10.340Z,3.18
2019-02-25T19:39:42.098Z,3.05
2019-02-25T19:42:15.451Z,2.92
2019-02-25T19:44:44.514Z,2.85
2019-02-25T19:47:16.732Z,3.10
2019-02-25T19:49:46.680Z,3.16
2019-02-25T19:52:17.274Z,3.28
2019-02-25T19:54:48.788Z,3.14
2019-02-25T19:57:21.017Z,3.24
2019-02-25T19:59:52.894Z,3.21
2019-02-25T20:02:24.661Z,3.13
2019-02-25T20:04:54.772Z,3.44
2019-02-25T20:07:27.925Z,3.33
2019-02-25T20:09:57.860Z,3.13
2019-02-25T20:12:28.396Z,2.78
2019-02-25T20:14:58.660Z,2.75
2019-02-25T20:17:30.635Z,2.78
2019-02-25T20:20:02.952Z,2.72
2019-02-25T20:22:34.473Z,2.70
2019-02-25T20:25:05.852Z,3.01
2019-02-25T20:27:36.287Z,3.24
2019-02-25T20:30:08.175Z,3.17
2019-02-25T20:32:38.976Z,3.00
2019-02-25T20:35:14.008Z,2.93
2019-02-25T20:37:43.714Z,2.61
2019-02-25T20:40:17.079Z,2.47
2019-02-25T20:42:49.077Z,2.29
2019-02-25T20:45:23.001Z,2.41
2019-02-25T20:47:52.245Z,2.55
2019-02-25T20:50:23.583Z,2.73
2019-02-25T20:52:53.691Z,2.89
2019-02-25T20:55:24.988Z,2.46
2019-02-25T20:57:55.976Z,2.33
2019-02-25T21:00:26.383Z,2.27
2019-02-25T21:02:56.569Z,2.24
2019-02-25T21:05:27.369Z,2.58
2019-02-25T21:07:59.745Z,2.37
2019-02-25T21:10:32.600Z,2.28
2019-02-25T21:13:02.316Z,2.00
2019-02-25T21:15:35.468Z,2.22
2019-02-25T21:18:07.530Z,2.19
2019-02-25T21:20:36.323Z,2.17
2019-02-25T21:23:08.366Z,2.12
2019-02-25T21:25:38.743Z,1.70
2019-02-25T21:28:09.564Z,1.76
2019-02-25T21:30:41.794Z,1.98
2019-02-25T21:33:15.317Z,0.93
2019-02-25T21:35:44.510Z,2.41
2019-02-25T21:38:14.593Z,2.44
2019-02-25T21:40:46.168Z,2.21
2019-02-25T21:43:18.577Z,2.00
2019-02-25T21:45:50.426Z,2.05
2019-02-25T21:48:23.050Z,1.72
2019-02-25T21:50:52.009Z,1.55
2019-02-25T21:53:21.901Z,1.55
2019-02-25T21:55:53.557Z,1.73
2019-02-25T21:58:25.433Z,1.82
2019-02-25T22:00:55.854Z,1.68
2019-02-25T22:03:25.891Z,1.34
2019-02-25T22:05:58.775Z,1.46
2019-02-25T22:08:29.047Z,1.43
2019-02-25T22:11:11.996Z,1.80
2019-02-25T22:13:31.712Z,1.71
2019-02-25T22:16:03.429Z,1.74
2019-02-25T22:18:34.152Z,1.86
2019-02-25T22:21:09.237Z,1.49
2019-02-25T22:23:37.313Z,1.49
2019-02-25T22:26:07.433Z,1.41
2019-02-25T22:28:39.418Z,1.38
2019-02-25T22:31:10.807Z,1.42
2019-02-25T22:33:41.240Z,1.45
2019-02-25T22:36:11.449Z,1.62
2019-02-25T22:38:41.412Z,1.73
2019-02-25T22:41:11.307Z,1.69
2019-02-25T22:43:43.736Z,1.82
2019-02-25T22:46:13.406Z,1.81
2019-02-25T22:48:45.075Z,1.65
2019-02-25T22:51:15.026Z,1.75
2019-02-25T22:53:45.216Z,1.92
2019-02-25T22:56:15.871Z,2.21
2019-02-25T22:58:47.088Z,2.18
2019-02-25T23:01:18.115Z,2.46
2019-02-25T23:03:50.540Z,2.68
2019-02-25T23:06:21.322Z,2.79
2019-02-25T23:08:53.401Z,3.09
2019-02-25T23:11:26.119Z,3.30
2019-02-25T23:13:56.501Z,3.35
2019-02-25T23:16:26.683Z,3.27
2019-02-25T23:18:56.667Z,2.67
2019-02-25T23:21:28.793Z,3.08
2019-02-25T23:24:00.488Z,3.09
2019-02-25T23:26:30.497Z,3.03
2019-02-25T23:29:00.692Z,2.78
2019-02-25T23:31:30.759Z,2.82
2019-02-25T23:34:00.946Z,3.03
2019-02-25T23:36:31.139Z,3.15
2019-02-25T23:39:01.703Z,3.15
2019-02-25T23:41:36.274Z,1.73
2019-02-25T23:44:04.672Z,3.17
2019-02-25T23:46:37.152Z,3.09
2019-02-25T23:49:06.683Z,3.09
2019-02-25T23:51:37.750Z,3.08
2019-02-25T23:54:11.845Z,3.05
2019-02-25T23:56:40.410Z,3.06
2019-02-25T23:59:12.696Z,3.04
